Airfield :







YOU CAN JOIN US ON...

 
LOGIN :

Register | Disclaimer

   EN    FR    IT 

 









Legend :    VFR   Marginal VFR   IFR   Intensive IFR   Very Intensive IFR
Visi :
Ceiling :
>= 8 km
>= 3000ft
5 to 8 km
1000 to 3000 ft
1500m to 5 km
500 to 1000 ft
800 to 1500m
200 to 500 ft
< 800m
< 200 ft
Symbols :   Thunderstorms  Fog  Heavy snow  Heavy precipitations  Wind > 20 kt






- Airport Elevation : 335 ft
- IATA code : BTV


KBTV - Burlington International

CURRENT METAR :
  • 141554Z 32009KT 10SM FEW045 FEW075 SCT200 27/18 A3012 RMK AO2 SLP198 T02670178

EXPIRED METARs :
  • 141454Z 31008KT 10SM FEW040 FEW075 SCT110 26/18 A3013 RMK AO2 SLP202 T02560178 53000
  • 141354Z 36005KT 10SM FEW030 FEW100 SCT200 24/17 A3013 RMK AO2 SLP202 T02390172

TAF KBTV
Valid from the 14 at 12:00 until the 15 at 12:00 UTC


141121Z 1412/1512 00000KT P6SM SCT180
FM141500 34008KT P6SM FEW150
FM150300 VRB03KT P6SM SKC
KZBW FIR / North America



MET'MAP, your aeronautical weather chart ! - Copyright ORBIFLY December 2007 - Disclaimer

ORBIFLY MET'MAP TEAM :

Programming & Development : Alexandra Zaïnal
Concept & original design : Baudouin d'Aumeries
Assistance for programming : Marc-Olivier Méhu
Technical & hardware support : Manuel Goepfert

Contact : metmap@orbifly.com




SOURCES & CREDITS :

   NOAA